createdAt,value
2023-02-16T00:01:02.659Z,4.70
2023-02-16T00:03:31.807Z,3.55
2023-02-16T00:05:59.424Z,4.68
2023-02-16T00:08:26.977Z,3.55
2023-02-16T00:11:20.290Z,4.50
2023-02-16T00:13:48.650Z,4.65
2023-02-16T00:16:16.914Z,3.80
2023-02-16T00:18:45.937Z,2.92
2023-02-16T00:21:13.785Z,4.20
2023-02-16T00:23:41.390Z,4.50
2023-02-16T00:26:13.994Z,4.50
2023-02-16T00:28:41.747Z,4.18
2023-02-16T00:31:16.491Z,4.18
2023-02-16T00:33:44.197Z,4.90
2023-02-16T00:36:13.183Z,4.55
2023-02-16T00:38:42.277Z,4.10
2023-02-16T00:41:36.344Z,4.82
2023-02-16T00:44:05.454Z,4.70
2023-02-16T00:46:33.255Z,4.65
2023-02-16T00:49:01.101Z,4.07
2023-02-16T00:51:30.047Z,4.28
2023-02-16T00:53:57.634Z,4.60
2023-02-16T00:56:25.228Z,5.45
2023-02-16T00:58:53.632Z,3.65
2023-02-16T01:01:23.295Z,4.93
2023-02-16T01:03:50.902Z,4.28
2023-02-16T01:06:35.846Z,5.40
2023-02-16T01:09:29.826Z,4.32
2023-02-16T01:11:57.640Z,4.57
2023-02-16T01:14:25.427Z,4.53
2023-02-16T01:16:53.705Z,4.03
2023-02-16T01:19:21.291Z,4.28
2023-02-16T01:21:48.857Z,4.20
2023-02-16T01:24:17.795Z,3.95
2023-02-16T01:26:46.898Z,3.85
2023-02-16T01:29:17.173Z,5.20
2023-02-16T01:31:45.407Z,5.32
2023-02-16T01:34:13.297Z,5.07
2023-02-16T01:36:45.530Z,5.18
2023-02-16T01:39:14.246Z,4.07
2023-02-16T01:41:51.660Z,4.63
2023-02-16T01:44:23.715Z,3.90
2023-02-16T01:46:57.546Z,4.45
2023-02-16T01:49:25.113Z,4.28
2023-02-16T01:51:56.498Z,4.65
2023-02-16T01:54:31.373Z,5.13
2023-02-16T01:57:04.629Z,5.15
2023-02-16T01:59:38.362Z,4.30
2023-02-16T02:02:09.522Z,4.28
2023-02-16T02:04:58.245Z,4.35
2023-02-16T02:07:28.664Z,5.00
2023-02-16T02:09:58.809Z,5.00
2023-02-16T02:12:33.810Z,4.43
2023-02-16T02:15:01.763Z,4.40
2023-02-16T02:17:29.966Z,5.40
2023-02-16T02:20:01.146Z,4.40
2023-02-16T02:23:03.789Z,5.15
2023-02-16T02:25:40.202Z,5.78
2023-02-16T02:28:10.823Z,4.50
2023-02-16T02:30:43.054Z,4.90
2023-02-16T02:33:17.986Z,5.00
2023-02-16T02:35:49.560Z,4.70
2023-02-16T02:38:20.283Z,4.97
2023-02-16T02:40:55.731Z,4.85
2023-02-16T02:43:28.729Z,5.03
2023-02-16T02:45:59.848Z,5.05
2023-02-16T02:48:30.586Z,3.53
2023-02-16T02:51:16.838Z,4.47
2023-02-16T02:53:46.290Z,4.18
2023-02-16T02:56:32.965Z,5.03
2023-02-16T02:59:23.057Z,4.50
2023-02-16T03:01:53.651Z,4.85
2023-02-16T03:04:23.676Z,4.40
2023-02-16T03:06:52.710Z,4.88
2023-02-16T03:09:20.829Z,5.45
2023-02-16T03:12:08.144Z,4.45
2023-02-16T03:14:38.528Z,4.10
2023-02-16T03:17:25.494Z,3.72
2023-02-16T03:20:11.360Z,4.35
2023-02-16T03:22:57.723Z,5.13
2023-02-16T03:25:43.809Z,5.40
2023-02-16T03:28:29.899Z,5.80
2023-02-16T03:30:59.552Z,5.53
2023-02-16T03:33:27.831Z,4.85
2023-02-16T03:35:55.713Z,4.38
2023-02-16T03:38:23.366Z,4.03
2023-02-16T03:40:51.753Z,4.53
2023-02-16T03:43:19.312Z,4.60
2023-02-16T03:45:46.961Z,5.05
2023-02-16T03:48:15.925Z,3.97
2023-02-16T03:50:43.458Z,4.35
2023-02-16T03:53:11.074Z,4.10
2023-02-16T03:55:40.260Z,4.53
2023-02-16T03:58:09.058Z,5.40
2023-02-16T04:00:37.296Z,4.43
2023-02-16T04:03:05.351Z,4.25
2023-02-16T04:05:34.542Z,5.43
2023-02-16T04:08:02.155Z,4.82
2023-02-16T04:10:29.787Z,3.92
2023-02-16T04:12:56.327Z,4.22
2023-02-16T04:15:26.153Z,4.43
2023-02-16T04:17:53.912Z,5.20
2023-02-16T04:20:22.235Z,4.25
2023-02-16T04:22:51.149Z,5.72
2023-02-16T04:25:19.675Z,3.72
2023-02-16T04:27:47.547Z,5.05
2023-02-16T04:30:16.296Z,4.97
2023-02-16T04:32:44.052Z,4.47
2023-02-16T04:35:12.077Z,5.38
2023-02-16T04:37:39.624Z,4.05
2023-02-16T04:40:09.833Z,5.88
2023-02-16T04:42:37.393Z,4.25
2023-02-16T04:45:05.134Z,4.40
2023-02-16T04:47:32.701Z,5.03
2023-02-16T04:50:00.277Z,5.13
2023-02-16T04:52:27.896Z,3.97
2023-02-16T04:54:55.451Z,4.75
2023-02-16T04:57:25.623Z,4.43
2023-02-16T04:59:53.221Z,4.03
2023-02-16T05:02:20.781Z,4.53
2023-02-16T05:04:48.498Z,4.22
2023-02-16T05:07:16.096Z,4.25
2023-02-16T05:09:43.708Z,5.55
2023-02-16T05:12:29.351Z,4.30
2023-02-16T05:14:58.272Z,3.95
2023-02-16T05:17:26.712Z,5.35
2023-02-16T05:19:54.697Z,4.88
2023-02-16T05:22:22.535Z,5.18
2023-02-16T05:24:50.365Z,5.03
2023-02-16T05:27:19.147Z,4.43
2023-02-16T05:29:46.803Z,4.38
2023-02-16T05:32:16.002Z,4.40
2023-02-16T05:34:44.448Z,4.45
2023-02-16T05:37:12.469Z,4.13
2023-02-16T05:39:40.075Z,4.40
2023-02-16T05:42:07.893Z,3.67
2023-02-16T05:44:35.464Z,5.05
2023-02-16T05:47:03.039Z,4.72
2023-02-16T05:49:32.139Z,4.32
2023-02-16T05:51:59.741Z,4.45
2023-02-16T05:54:27.940Z,3.60
2023-02-16T05:56:55.763Z,4.35
2023-02-16T05:59:23.356Z,4.05
2023-02-16T06:01:52.430Z,4.50
2023-02-16T06:04:20.669Z,4.43
2023-02-16T06:06:49.958Z,3.97
2023-02-16T06:09:17.556Z,4.90
2023-02-16T06:11:45.280Z,4.88
2023-02-16T06:14:13.883Z,4.43
2023-02-16T06:16:42.280Z,4.28
2023-02-16T06:19:10.355Z,4.13
2023-02-16T06:21:38.456Z,3.70
2023-02-16T06:24:08.072Z,4.55
2023-02-16T06:26:35.697Z,4.32
2023-02-16T06:29:03.700Z,3.38
2023-02-16T06:31:31.517Z,4.13
2023-02-16T06:34:00.352Z,4.10
2023-02-16T06:36:27.972Z,3.85
2023-02-16T06:38:55.603Z,4.78
2023-02-16T06:41:35.733Z,5.47
2023-02-16T06:44:05.081Z,4.40
2023-02-16T06:46:32.998Z,4.35
2023-02-16T06:49:00.782Z,3.42
2023-02-16T06:51:28.492Z,4.05
2023-02-16T06:53:56.475Z,4.60
2023-02-16T06:56:25.715Z,4.95
2023-02-16T06:58:53.438Z,4.25
2023-02-16T07:01:23.316Z,4.07
2023-02-16T07:03:51.531Z,4.22
2023-02-16T07:06:19.139Z,4.22
2023-02-16T07:08:46.939Z,4.00
2023-02-16T07:11:14.540Z,3.80
2023-02-16T07:13:43.574Z,4.13
2023-02-16T07:16:11.235Z,5.32
2023-02-16T07:18:38.904Z,4.32
2023-02-16T07:21:07.153Z,4.63
2023-02-16T07:23:35.220Z,4.55
2023-02-16T07:26:02.779Z,3.38
2023-02-16T07:28:30.325Z,3.75
2023-02-16T07:30:59.481Z,5.13
2023-02-16T07:33:27.030Z,5.07
2023-02-16T07:35:54.757Z,3.83
2023-02-16T07:38:22.291Z,4.22
2023-02-16T07:40:49.838Z,5.38
2023-02-16T07:43:18.434Z,4.60
2023-02-16T07:45:46.164Z,4.38
2023-02-16T07:48:15.106Z,3.97
2023-02-16T07:50:42.734Z,4.45
2023-02-16T07:53:12.790Z,5.25
2023-02-16T07:55:40.984Z,3.67
2023-02-16T07:58:08.615Z,4.38
2023-02-16T08:00:36.246Z,4.45
2023-02-16T08:03:04.149Z,5.65
2023-02-16T08:05:34.953Z,3.53
2023-02-16T08:08:02.555Z,4.30
2023-02-16T08:10:30.138Z,4.80
2023-02-16T08:12:58.016Z,3.97
2023-02-16T08:15:25.586Z,4.78
2023-02-16T08:17:53.188Z,4.38
2023-02-16T08:20:23.647Z,4.30
2023-02-16T08:22:54.576Z,4.35
2023-02-16T08:25:22.534Z,4.70
2023-02-16T08:27:50.118Z,4.63
2023-02-16T08:30:18.415Z,3.83
2023-02-16T08:32:46.281Z,4.25
2023-02-16T08:35:13.838Z,4.60
2023-02-16T08:37:41.450Z,4.38
2023-02-16T08:40:11.185Z,3.15
2023-02-16T08:42:39.092Z,3.03
2023-02-16T08:45:07.356Z,4.50
2023-02-16T08:47:36.507Z,3.30
2023-02-16T08:50:04.091Z,4.97
2023-02-16T08:52:31.678Z,3.85
2023-02-16T08:54:59.292Z,3.60
2023-02-16T08:57:28.190Z,4.38
2023-02-16T09:00:09.702Z,4.03
2023-02-16T09:02:37.401Z,4.43
2023-02-16T09:05:05.367Z,4.53
2023-02-16T09:07:34.988Z,2.33
2023-02-16T09:10:02.742Z,4.00
2023-02-16T09:12:33.035Z,3.97
2023-02-16T09:15:00.676Z,3.45
2023-02-16T09:17:29.586Z,4.75
2023-02-16T09:19:57.168Z,3.15
2023-02-16T09:22:24.788Z,3.33
2023-02-16T09:24:52.345Z,3.13
2023-02-16T09:27:20.102Z,2.95
2023-02-16T09:29:49.823Z,3.05
2023-02-16T09:32:17.433Z,4.38
2023-02-16T09:34:46.211Z,3.22
2023-02-16T09:37:14.599Z,3.92
2023-02-16T09:39:42.170Z,2.88
2023-02-16T09:42:16.639Z,4.13
2023-02-16T09:44:49.248Z,3.10
2023-02-16T09:47:22.028Z,3.35
2023-02-16T09:49:50.409Z,3.05
2023-02-16T09:52:21.916Z,4.20
2023-02-16T09:54:52.152Z,4.78
2023-02-16T09:57:23.718Z,3.63
2023-02-16T09:59:56.196Z,3.53
2023-02-16T10:02:30.919Z,2.92
2023-02-16T10:05:05.442Z,4.22
2023-02-16T10:07:33.973Z,4.18
2023-02-16T10:10:02.277Z,3.05
2023-02-16T10:12:33.204Z,4.70
2023-02-16T10:15:04.114Z,3.95
2023-02-16T10:17:40.785Z,3.67
2023-02-16T10:20:12.983Z,3.80
2023-02-16T10:22:42.590Z,4.43
2023-02-16T10:25:12.734Z,3.47
2023-02-16T10:27:42.287Z,2.67
2023-02-16T10:30:14.526Z,2.88
2023-02-16T10:32:51.927Z,3.50
2023-02-16T10:35:23.000Z,3.60
2023-02-16T10:37:59.225Z,4.05
2023-02-16T10:40:29.850Z,3.72
2023-02-16T10:43:01.242Z,3.47
2023-02-16T10:45:31.924Z,3.97
2023-02-16T10:48:01.173Z,3.33
2023-02-16T10:50:31.209Z,3.80
2023-02-16T10:52:59.858Z,3.53
2023-02-16T10:55:27.704Z,3.40
2023-02-16T10:57:56.555Z,4.53
2023-02-16T11:00:27.939Z,3.28
2023-02-16T11:02:56.687Z,3.80
2023-02-16T11:05:38.134Z,4.38
2023-02-16T11:08:06.338Z,3.20
2023-02-16T11:10:41.924Z,4.03
2023-02-16T11:13:27.941Z,3.60
2023-02-16T11:15:57.252Z,2.40
2023-02-16T11:18:29.018Z,3.85
2023-02-16T11:20:58.408Z,4.15
2023-02-16T11:23:26.829Z,3.47
2023-02-16T11:25:58.695Z,3.63
2023-02-16T11:28:27.464Z,3.40
2023-02-16T11:31:00.722Z,3.83
2023-02-16T11:33:29.429Z,3.10
2023-02-16T11:35:58.490Z,3.97
2023-02-16T11:38:27.834Z,3.35
2023-02-16T11:40:55.851Z,2.92
2023-02-16T11:43:24.281Z,2.92
2023-02-16T11:45:58.631Z,3.15
2023-02-16T11:48:26.923Z,3.35
2023-02-16T11:50:56.806Z,3.78
2023-02-16T11:53:27.388Z,3.00
2023-02-16T11:56:10.675Z,2.97
2023-02-16T11:58:38.983Z,3.80
2023-02-16T12:01:11.049Z,2.40
2023-02-16T12:03:57.171Z,3.40
2023-02-16T12:06:40.433Z,3.45
2023-02-16T12:09:13.253Z,3.33
2023-02-16T12:11:47.646Z,3.83
2023-02-16T12:14:22.351Z,3.17
2023-02-16T12:16:54.215Z,3.55
2023-02-16T12:19:30.533Z,3.13
2023-02-16T12:22:01.477Z,2.90
2023-02-16T12:24:36.939Z,4.00
2023-02-16T12:27:04.997Z,4.05
2023-02-16T12:29:39.037Z,4.00
2023-02-16T12:32:17.116Z,4.00
2023-02-16T12:34:53.428Z,4.13
2023-02-16T12:37:23.742Z,11.35
2023-02-16T12:39:56.851Z,2.80
2023-02-16T12:42:33.535Z,3.35
2023-02-16T12:45:02.639Z,2.15
2023-02-16T12:47:32.402Z,4.13
2023-02-16T12:50:03.402Z,3.33
2023-02-16T12:52:37.335Z,2.70
2023-02-16T12:55:17.885Z,3.38
2023-02-16T12:57:48.546Z,4.35
2023-02-16T13:00:20.121Z,4.47
2023-02-16T13:02:50.828Z,3.35
2023-02-16T13:05:21.180Z,5.00
2023-02-16T13:07:51.190Z,2.87
2023-02-16T13:10:24.302Z,1.90
2023-02-16T13:12:55.034Z,2.15
2023-02-16T13:15:25.568Z,5.47
2023-02-16T13:17:56.466Z,3.97
2023-02-16T13:20:24.883Z,2.53
2023-02-16T13:23:11.814Z,4.07
2023-02-16T13:25:49.825Z,3.13
2023-02-16T13:28:27.256Z,4.32
2023-02-16T13:31:13.037Z,4.45
2023-02-16T13:33:48.701Z,4.50
2023-02-16T13:36:35.970Z,4.95
2023-02-16T13:39:28.480Z,4.20
2023-02-16T13:42:07.393Z,4.28
2023-02-16T13:44:38.599Z,4.00
2023-02-16T13:47:06.415Z,5.78
2023-02-16T13:49:37.176Z,4.53
2023-02-16T13:52:06.918Z,4.53
2023-02-16T13:54:35.655Z,3.17
2023-02-16T13:57:11.746Z,2.50
2023-02-16T13:59:57.274Z,2.67
2023-02-16T14:02:43.610Z,4.97
2023-02-16T14:05:11.832Z,2.35
2023-02-16T14:07:39.740Z,3.85
2023-02-16T14:10:07.980Z,4.25
2023-02-16T14:12:40.553Z,4.13
2023-02-16T14:15:18.333Z,2.72
2023-02-16T14:17:47.382Z,3.30
2023-02-16T14:20:27.056Z,2.80
2023-02-16T14:22:57.307Z,3.03
2023-02-16T14:25:38.661Z,4.50
2023-02-16T14:28:27.951Z,3.50
2023-02-16T14:30:56.815Z,4.15
2023-02-16T14:33:31.611Z,4.38
2023-02-16T14:36:08.890Z,2.95
2023-02-16T14:38:37.879Z,3.72
2023-02-16T14:41:08.072Z,3.25
2023-02-16T14:43:41.580Z,3.95
2023-02-16T14:46:27.931Z,3.35
2023-02-16T14:49:04.946Z,3.65
2023-02-16T14:51:51.688Z,3.72
2023-02-16T14:54:37.623Z,4.32
2023-02-16T14:57:06.888Z,4.63
2023-02-16T14:59:39.778Z,3.65
2023-02-16T15:02:22.199Z,3.28
2023-02-16T15:04:50.214Z,3.10
2023-02-16T15:07:18.688Z,3.65
2023-02-16T15:09:47.582Z,3.08
2023-02-16T15:12:25.516Z,2.58
2023-02-16T15:14:55.193Z,3.25
2023-02-16T15:17:27.318Z,4.53
2023-02-16T15:19:55.981Z,3.28
2023-02-16T15:22:24.451Z,3.15
2023-02-16T15:24:56.081Z,3.42
2023-02-16T15:27:24.066Z,4.10
2023-02-16T15:30:05.896Z,3.10
2023-02-16T15:32:33.575Z,3.85
2023-02-16T15:35:10.031Z,2.67
2023-02-16T15:37:40.377Z,3.70
2023-02-16T15:40:25.802Z,3.50
2023-02-16T15:42:55.398Z,2.92
2023-02-16T15:45:32.498Z,3.13
2023-02-16T15:48:16.234Z,4.03
2023-02-16T15:50:44.502Z,3.00
2023-02-16T15:53:13.163Z,2.00
2023-02-16T15:55:44.563Z,2.63
2023-02-16T15:58:14.804Z,3.15
2023-02-16T16:00:44.885Z,2.38
2023-02-16T16:03:15.652Z,3.42
2023-02-16T16:05:43.573Z,2.70
2023-02-16T16:08:14.049Z,3.20
2023-02-16T16:10:42.473Z,2.75
2023-02-16T16:13:13.751Z,2.85
2023-02-16T16:15:42.526Z,2.72
2023-02-16T16:18:34.024Z,2.60
2023-02-16T16:21:02.806Z,2.28
2023-02-16T16:23:30.624Z,2.13
2023-02-16T16:25:58.741Z,2.92
2023-02-16T16:28:34.799Z,2.70
2023-02-16T16:31:09.480Z,2.80
2023-02-16T16:33:51.957Z,2.10
2023-02-16T16:36:21.104Z,2.33
2023-02-16T16:38:48.797Z,3.28
2023-02-16T16:41:25.830Z,3.05
2023-02-16T16:43:53.944Z,2.55
2023-02-16T16:46:24.372Z,2.60
2023-02-16T16:48:53.281Z,1.73
2023-02-16T16:51:35.647Z,3.00
2023-02-16T16:54:04.103Z,2.10
2023-02-16T16:56:32.348Z,2.63
2023-02-16T16:59:00.271Z,1.65
2023-02-16T17:01:28.461Z,2.22
2023-02-16T17:03:56.139Z,2.85
2023-02-16T17:06:25.744Z,2.33
2023-02-16T17:08:55.082Z,2.80
2023-02-16T17:11:25.110Z,3.33
2023-02-16T17:13:54.679Z,2.00
2023-02-16T17:16:24.307Z,3.33
2023-02-16T17:18:51.863Z,2.95
2023-02-16T17:21:19.464Z,1.98
2023-02-16T17:23:53.176Z,2.10
2023-02-16T17:26:21.188Z,2.35
2023-02-16T17:28:48.784Z,2.78
2023-02-16T17:31:16.447Z,2.47
2023-02-16T17:33:44.764Z,2.30
2023-02-16T17:36:13.616Z,2.95
2023-02-16T17:38:41.606Z,2.58
2023-02-16T17:41:17.566Z,2.30
2023-02-16T17:43:45.141Z,2.72
2023-02-16T17:46:13.721Z,2.88
2023-02-16T17:48:41.568Z,3.20
2023-02-16T17:51:14.351Z,3.05
2023-02-16T17:53:41.932Z,3.25
2023-02-16T17:56:12.745Z,3.67
2023-02-16T17:58:40.474Z,3.72
2023-02-16T18:01:08.185Z,3.28
2023-02-16T18:03:35.817Z,3.17
2023-02-16T18:06:03.799Z,3.63
2023-02-16T18:08:31.554Z,3.65
2023-02-16T18:11:02.088Z,3.83
2023-02-16T18:13:31.153Z,3.80
2023-02-16T18:15:59.475Z,3.63
2023-02-16T18:18:27.067Z,3.42
2023-02-16T18:20:54.699Z,3.28
2023-02-16T18:23:22.259Z,4.00
2023-02-16T18:25:49.886Z,3.75
2023-02-16T18:28:19.415Z,4.10
2023-02-16T18:30:49.321Z,4.22
2023-02-16T18:33:17.067Z,4.13
2023-02-16T18:35:44.699Z,4.53
2023-02-16T18:38:13.498Z,4.18
2023-02-16T18:40:42.087Z,3.80
2023-02-16T18:43:11.265Z,4.35
2023-02-16T18:45:39.358Z,3.80
2023-02-16T18:48:08.374Z,3.90
2023-02-16T18:50:36.001Z,3.40
2023-02-16T18:53:03.569Z,3.45
2023-02-16T18:55:32.995Z,3.50
2023-02-16T18:58:00.947Z,2.83
2023-02-16T19:00:28.799Z,3.08
2023-02-16T19:02:57.004Z,2.78
2023-02-16T19:05:26.082Z,3.25
2023-02-16T19:07:53.742Z,3.42
2023-02-16T19:10:21.402Z,2.80
2023-02-16T19:12:49.001Z,2.42
2023-02-16T19:15:16.538Z,2.40
2023-02-16T19:17:44.149Z,3.25
2023-02-16T19:20:16.651Z,1.98
2023-02-16T19:22:45.652Z,3.08
2023-02-16T19:25:13.184Z,2.55
2023-02-16T19:27:40.759Z,2.22
2023-02-16T19:30:08.702Z,3.25
2023-02-16T19:32:36.641Z,2.90
2023-02-16T19:35:04.553Z,2.55
2023-02-16T19:37:32.119Z,2.15
2023-02-16T19:40:01.078Z,2.53
2023-02-16T19:42:28.654Z,3.20
2023-02-16T19:44:56.298Z,2.33
2023-02-16T19:47:23.896Z,2.60
2023-02-16T19:49:51.505Z,2.90
2023-02-16T19:52:19.272Z,2.63
2023-02-16T19:54:47.461Z,2.90
2023-02-16T19:57:16.372Z,3.03
2023-02-16T19:59:44.033Z,3.10
2023-02-16T20:02:12.986Z,2.92
2023-02-16T20:04:40.545Z,2.50
2023-02-16T20:07:08.543Z,2.78
2023-02-16T20:09:37.211Z,2.65
2023-02-16T20:12:04.898Z,2.40
2023-02-16T20:14:33.836Z,2.63
2023-02-16T20:17:01.417Z,2.80
2023-02-16T20:19:29.036Z,3.50
2023-02-16T20:21:56.618Z,2.63
2023-02-16T20:24:24.278Z,3.05
2023-02-16T20:26:52.195Z,2.67
2023-02-16T20:29:20.776Z,2.40
2023-02-16T20:31:51.710Z,2.03
2023-02-16T20:34:19.431Z,2.42
2023-02-16T20:36:47.043Z,1.80
2023-02-16T20:39:14.816Z,2.63
2023-02-16T20:41:43.076Z,2.50
2023-02-16T20:44:10.764Z,1.77
2023-02-16T20:46:39.160Z,2.45
2023-02-16T20:49:08.242Z,2.38
2023-02-16T20:51:36.199Z,2.60
2023-02-16T20:54:04.119Z,1.38
2023-02-16T20:56:31.698Z,2.30
2023-02-16T20:58:59.545Z,2.15
2023-02-16T21:01:28.667Z,2.28
2023-02-16T21:03:57.119Z,2.42
2023-02-16T21:06:26.088Z,2.17
2023-02-16T21:08:53.733Z,1.95
2023-02-16T21:11:21.326Z,1.55
2023-02-16T21:13:48.910Z,2.42
2023-02-16T21:16:16.900Z,2.25
2023-02-16T21:18:45.032Z,2.47
2023-02-16T21:21:15.554Z,1.50
2023-02-16T21:23:45.282Z,1.55
2023-02-16T21:26:12.874Z,1.73
2023-02-16T21:28:40.469Z,2.00
2023-02-16T21:31:09.709Z,2.17
2023-02-16T21:33:37.516Z,1.60
2023-02-16T21:36:06.463Z,2.00
2023-02-16T21:38:35.089Z,0.98
2023-02-16T21:41:21.914Z,1.98
2023-02-16T21:43:49.531Z,1.70
2023-02-16T21:46:17.195Z,1.50
2023-02-16T21:48:46.826Z,2.05
2023-02-16T21:51:14.942Z,1.65
2023-02-16T21:53:42.530Z,1.20
2023-02-16T21:56:20.252Z,1.27
2023-02-16T21:58:48.010Z,1.80
2023-02-16T22:01:15.677Z,2.17
2023-02-16T22:03:43.348Z,1.77
2023-02-16T22:06:10.976Z,1.30
2023-02-16T22:08:38.951Z,1.05
2023-02-16T22:11:07.169Z,1.67
2023-02-16T22:13:36.807Z,1.02
2023-02-16T22:16:10.225Z,1.42
2023-02-16T22:18:37.971Z,1.85
2023-02-16T22:21:06.066Z,1.70
2023-02-16T22:23:33.640Z,1.75
2023-02-16T22:26:01.236Z,1.20
2023-02-16T22:28:28.785Z,1.38
2023-02-16T22:30:57.739Z,1.80
2023-02-16T22:33:25.342Z,1.92
2023-02-16T22:35:52.903Z,2.05
2023-02-16T22:38:20.490Z,1.73
2023-02-16T22:40:48.071Z,1.40
2023-02-16T22:43:15.664Z,1.60
2023-02-16T22:45:43.309Z,1.40
2023-02-16T22:48:12.245Z,1.40
2023-02-16T22:50:39.815Z,1.45
2023-02-16T22:53:07.363Z,1.40
2023-02-16T22:55:34.982Z,1.00
2023-02-16T22:58:02.556Z,1.45
2023-02-16T23:00:30.182Z,1.27
2023-02-16T23:02:57.730Z,1.45
2023-02-16T23:05:26.720Z,1.40
2023-02-16T23:07:54.277Z,1.15
2023-02-16T23:10:21.875Z,1.20
2023-02-16T23:12:49.439Z,1.58
2023-02-16T23:15:17.171Z,1.25
2023-02-16T23:17:44.708Z,0.82
2023-02-16T23:20:12.639Z,1.85
2023-02-16T23:22:41.550Z,1.48
2023-02-16T23:25:26.630Z,1.42
2023-02-16T23:27:54.378Z,0.95
2023-02-16T23:30:22.143Z,1.15
2023-02-16T23:32:49.799Z,0.75
2023-02-16T23:35:17.441Z,1.55
2023-02-16T23:37:47.632Z,1.05
2023-02-16T23:40:15.195Z,1.35
2023-02-16T23:42:42.770Z,1.23
2023-02-16T23:45:10.426Z,0.68
2023-02-16T23:47:38.002Z,1.08
2023-02-16T23:50:05.993Z,1.30
2023-02-16T23:52:33.582Z,0.70
2023-02-16T23:55:02.526Z,1.25
2023-02-16T23:57:30.111Z,1.00
2023-02-16T23:59:57.684Z,1.30
